Time;durP1;ratioP1;P1;durP2;ratioP2;P2;SDS_P1;SDS_P2;PMS_P1;PMS_P2;Temp;Humidity;BMP_temperature;BMP_pressure;BME280_temperature;BME280_humidity;BME280_pressure;Samples;Min_cycle;Max_cycle;Signal;HPM_P1;HPM_P2
2022/09/14 00:01:07;;;;;;;5.68;1.35;;;;;;;-142.37;100.00;59669.53;4974081;28;20090;-64
2022/09/14 00:03:33;;;;;;;3.47;1.38;;;;;;;-142.37;100.00;59669.53;4974396;28;20034;-65
2022/09/14 00:06:08;;;;;;;6.15;2.33;;;;;;;-142.37;100.00;59669.53;4974427;28;20468;-63
2022/09/14 00:08:34;;;;;;;11.10;1.63;;;;;;;-142.37;100.00;59669.53;4974279;28;20042;-67
2022/09/14 00:11:07;;;;;;;4.28;1.52;;;;;;;-142.37;100.00;59669.53;4974247;28;20034;-66
2022/09/14 00:13:35;;;;;;;6.32;1.42;;;;;;;-142.37;100.00;59669.53;4956621;28;20034;-64
2022/09/14 00:16:06;;;;;;;7.45;1.33;;;;;;;-142.37;100.00;59669.53;4956967;28;20030;-64
2022/09/14 00:18:34;;;;;;;8.20;2.45;;;;;;;-142.37;100.00;59669.53;4974001;28;20027;-64
2022/09/14 00:21:01;;;;;;;5.07;1.63;;;;;;;-142.37;100.00;59669.53;4973952;28;20062;-63
2022/09/14 00:23:27;;;;;;;6.88;1.83;;;;;;;-142.37;100.00;59669.53;4974016;28;20038;-63
2022/09/14 00:25:53;;;;;;;3.60;1.35;;;;;;;-142.37;100.00;59669.53;4973941;28;20038;-64
2022/09/14 00:28:19;;;;;;;4.32;1.25;;;;;;;-142.37;100.00;59669.53;4972568;28;20130;-63
2022/09/14 00:30:45;;;;;;;5.75;1.40;;;;;;;-142.37;100.00;59669.53;4974102;28;20085;-64
2022/09/14 00:33:12;;;;;;;5.00;1.70;;;;;;;-142.37;100.00;59669.53;4955995;28;20061;-65
2022/09/14 00:35:38;;;;;;;4.97;1.63;;;;;;;-142.37;100.00;59669.53;4973899;28;20451;-65
2022/09/14 00:38:05;;;;;;;3.83;1.63;;;;;;;-142.37;100.00;59669.53;4973769;28;20069;-63
2022/09/14 00:40:30;;;;;;;3.28;1.70;;;;;;;-142.37;100.00;59669.53;4973888;28;20113;-63
2022/09/14 00:42:56;;;;;;;3.70;1.60;;;;;;;-142.37;100.00;59669.53;4973499;28;20134;-68
2022/09/14 00:45:24;;;;;;;4.78;1.30;;;;;;;-142.37;100.00;59669.53;4973871;28;20078;-63
2022/09/14 00:47:52;;;;;;;5.38;1.50;;;;;;;-142.37;100.00;59669.53;4973800;28;20511;-63
2022/09/14 00:50:19;;;;;;;6.22;2.30;;;;;;;-142.37;100.00;59669.53;4956263;28;20385;-65
2022/09/14 00:52:48;;;;;;;4.10;1.92;;;;;;;-142.37;100.00;59669.53;4973514;28;20062;-65
2022/09/14 00:55:19;;;;;;;4.07;2.00;;;;;;;-142.37;100.00;59669.53;4973680;28;20039;-64
2022/09/14 00:57:51;;;;;;;5.03;2.55;;;;;;;-142.37;100.00;59669.53;4973701;28;20033;-62
2022/09/14 01:00:23;;;;;;;5.35;2.00;;;;;;;-142.37;100.00;59669.53;4956186;28;20037;-62
2022/09/14 01:02:49;;;;;;;4.68;1.83;;;;;;;-142.37;100.00;59669.53;4956281;28;20084;-63
2022/09/14 01:05:16;;;;;;;6.78;2.20;;;;;;;-142.37;100.00;59669.53;4973295;28;20028;-64
2022/09/14 01:08:27;;;;;;;4.88;1.92;;;;;;;-142.37;100.00;59669.53;4955833;28;20181;-62
2022/09/14 01:11:29;;;;;;;5.68;1.98;;;;;;;-142.37;100.00;59669.53;4955544;28;20039;-62
2022/09/14 01:14:13;;;;;;;3.80;1.35;;;;;;;-142.37;100.00;59669.53;4955824;28;20464;-64
2022/09/14 01:17:13;;;;;;;4.68;1.88;;;;;;;-142.37;100.00;59669.53;4972219;28;20043;-64
2022/09/14 01:20:18;;;;;;;6.93;2.00;;;;;;;-142.37;100.00;59669.53;4956029;28;20039;-62
2022/09/14 01:23:07;;;;;;;5.63;2.75;;;;;;;-142.37;100.00;59669.53;4973553;28;20043;-63
2022/09/14 01:26:11;;;;;;;5.18;1.63;;;;;;;-142.37;100.00;59669.53;4973257;28;20033;-63
2022/09/14 01:28:42;;;;;;;3.63;1.80;;;;;;;-142.37;100.00;59669.53;4954108;28;20072;-63
2022/09/14 01:31:26;;;;;;;5.35;1.83;;;;;;;-142.37;100.00;59669.53;4959704;28;20035;-63
2022/09/14 01:33:58;;;;;;;8.23;2.00;;;;;;;-142.37;100.00;59669.53;4959468;28;20058;-64
2022/09/14 01:36:27;;;;;;;4.55;1.98;;;;;;;-142.37;100.00;59669.53;4959615;28;20384;-64
2022/09/14 01:38:54;;;;;;;4.00;1.60;;;;;;;-142.37;100.00;59669.53;4959581;28;20476;-65
2022/09/14 01:41:29;;;;;;;4.53;1.98;;;;;;;-142.37;100.00;59669.53;4976880;28;20121;-65
2022/09/14 01:44:19;;;;;;;4.10;1.90;;;;;;;-142.37;100.00;59669.53;4977066;28;20488;-67
2022/09/14 01:46:50;;;;;;;6.80;1.80;;;;;;;-142.37;100.00;59669.53;4977471;28;20035;-65
2022/09/14 01:49:31;;;;;;;6.55;1.70;;;;;;;-142.37;100.00;59669.53;4959040;28;20026;-65
2022/09/14 01:52:25;;;;;;;5.70;1.67;;;;;;;-142.37;100.00;59669.53;4976833;28;20026;-65
2022/09/14 01:54:59;;;;;;;10.35;1.83;;;;;;;-142.37;100.00;59669.53;4953671;28;20479;-65
2022/09/14 01:57:33;;;;;;;4.55;1.55;;;;;;;-142.37;100.00;59669.53;4976841;28;20031;-65
2022/09/14 02:00:04;;;;;;;7.72;1.60;;;;;;;-142.37;100.00;59669.53;4976706;28;20055;-65
2022/09/14 02:02:39;;;;;;;3.95;1.85;;;;;;;-142.37;100.00;59669.53;4959254;28;20191;-64
2022/09/14 02:05:09;;;;;;;5.55;2.22;;;;;;;-142.37;100.00;59669.53;4959121;28;20042;-64
2022/09/14 02:07:36;;;;;;;4.75;1.90;;;;;;;-142.37;100.00;59669.53;4976685;28;20118;-64
2022/09/14 02:10:05;;;;;;;6.25;1.52;;;;;;;-142.37;100.00;59669.53;4976538;28;20086;-65
2022/09/14 02:12:31;;;;;;;7.57;2.22;;;;;;;-142.37;100.00;59669.53;4959196;28;20022;-67
2022/09/14 02:14:57;;;;;;;6.15;2.15;;;;;;;-142.37;100.00;59669.53;4976374;28;20518;-70
2022/09/14 02:17:22;;;;;;;4.88;1.85;;;;;;;-142.37;100.00;59669.53;4959216;28;20123;-65
2022/09/14 02:19:56;;;;;;;9.20;2.05;;;;;;;-142.37;100.00;59669.53;4976418;28;20464;-66
2022/09/14 02:22:27;;;;;;;4.65;2.33;;;;;;;-142.37;100.00;59669.53;4958854;28;20030;-65
2022/09/14 02:24:53;;;;;;;7.43;2.42;;;;;;;-142.37;100.00;59669.53;4976183;28;20395;-66
2022/09/14 02:27:19;;;;;;;3.55;1.80;;;;;;;-142.37;100.00;59669.53;4958654;28;20034;-66
2022/09/14 02:29:45;;;;;;;5.28;1.83;;;;;;;-142.37;100.00;59669.53;4976306;28;20027;-65
2022/09/14 02:32:26;;;;;;;4.90;2.65;;;;;;;-142.37;100.00;59669.53;4958797;28;20377;-65
2022/09/14 02:35:10;;;;;;;6.00;1.95;;;;;;;-142.37;100.00;59669.53;4975904;28;20392;-65
2022/09/14 02:37:43;;;;;;;8.23;1.92;;;;;;;-142.37;100.00;59669.53;4974878;28;20039;-65
2022/09/14 02:40:17;;;;;;;6.45;2.10;;;;;;;-142.37;100.00;59669.53;4957596;28;20063;-66
2022/09/14 02:43:01;;;;;;;6.03;2.38;;;;;;;-142.37;100.00;59669.53;4976060;28;20023;-65
2022/09/14 02:45:39;;;;;;;7.13;2.53;;;;;;;-142.37;100.00;59669.53;4975814;28;20088;-65
2022/09/14 02:48:10;;;;;;;6.72;2.60;;;;;;;-142.37;100.00;59669.53;4976107;28;20031;-64
2022/09/14 02:50:57;;;;;;;4.38;2.17;;;;;;;-142.37;100.00;59669.53;4975636;28;20102;-64
2022/09/14 02:53:26;;;;;;;8.65;2.28;;;;;;;-142.37;100.00;59669.53;4976131;28;20039;-66
2022/09/14 02:56:00;;;;;;;5.43;2.30;;;;;;;-142.37;100.00;59669.53;4974257;28;20122;-65
2022/09/14 02:58:37;;;;;;;2.30;1.30;;;;;;;-142.37;100.00;59669.53;4975654;28;20428;-66
2022/09/14 03:01:04;;;;;;;3.35;1.45;;;;;;;-142.37;100.00;59669.53;4958070;28;20824;-64
2022/09/14 03:03:30;;;;;;;2.63;1.35;;;;;;;-142.37;100.00;59669.53;4958047;28;20034;-68
2022/09/14 03:05:56;;;;;;;4.60;1.40;;;;;;;-142.37;100.00;59669.53;4958249;28;20035;-67
2022/09/14 03:08:23;;;;;;;2.70;1.27;;;;;;;-142.37;100.00;59669.53;4975519;28;20030;-68
2022/09/14 03:10:48;;;;;;;6.57;1.92;;;;;;;-142.37;100.00;59669.53;4975554;28;20035;-68
2022/09/14 03:13:14;;;;;;;4.22;1.25;;;;;;;-142.37;100.00;59669.53;4974967;28;20403;-69
2022/09/14 03:15:40;;;;;;;7.53;1.75;;;;;;;-142.37;100.00;59669.53;4958121;28;20030;-68
2022/09/14 03:18:07;;;;;;;11.15;2.90;;;;;;;-142.37;100.00;59669.53;4975350;28;20399;-66
2022/09/14 03:20:33;;;;;;;20.08;3.45;;;;;;;-142.37;100.00;59669.53;4975259;28;20092;-63
2022/09/14 03:23:00;;;;;;;5.53;1.98;;;;;;;-142.37;100.00;59669.53;4974916;28;20377;-62
2022/09/14 03:25:27;;;;;;;5.68;1.98;;;;;;;-142.37;100.00;59669.53;4957855;28;20476;-63
2022/09/14 03:27:56;;;;;;;8.15;2.20;;;;;;;-142.37;100.00;59669.53;4975222;28;20038;-63
2022/09/14 03:30:23;;;;;;;4.32;1.70;;;;;;;-142.37;100.00;59669.53;4975080;28;20073;-67
2022/09/14 03:32:49;;;;;;;3.13;1.48;;;;;;;-142.37;100.00;59669.53;4954160;29;20399;-67
2022/09/14 03:35:16;;;;;;;2.55;1.05;;;;;;;-142.37;100.00;59669.53;4955485;29;20035;-69
2022/09/14 03:37:43;;;;;;;1.88;1.13;;;;;;;-142.37;100.00;59669.53;4938163;29;20488;-67
2022/09/14 03:40:10;;;;;;;3.42;1.20;;;;;;;-142.37;100.00;59669.53;4938607;29;20038;-67
2022/09/14 03:42:41;;;;;;;1.75;1.05;;;;;;;-142.37;100.00;59669.53;4938415;29;20121;-70
2022/09/14 03:45:07;;;;;;;6.38;1.30;;;;;;;-142.37;100.00;59669.53;4955230;29;20082;-70
2022/09/14 03:47:33;;;;;;;5.60;1.30;;;;;;;-142.37;100.00;59669.53;4938200;29;20556;-69
2022/09/14 03:49:58;;;;;;;3.17;1.15;;;;;;;-142.37;100.00;59669.53;4938186;29;20118;-70
2022/09/14 03:52:24;;;;;;;3.28;1.38;;;;;;;-142.37;100.00;59669.53;4937609;29;20031;-68
2022/09/14 03:54:49;;;;;;;9.45;1.30;;;;;;;-142.37;100.00;59669.53;4938152;29;20031;-69
2022/09/14 03:57:15;;;;;;;2.85;1.33;;;;;;;-142.37;100.00;59669.53;4937621;29;20134;-69
2022/09/14 03:59:40;;;;;;;3.35;1.25;;;;;;;-142.37;100.00;59669.53;4955119;29;20062;-69
2022/09/14 04:02:06;;;;;;;1.85;1.05;;;;;;;-142.37;100.00;59669.53;4955182;29;20039;-68
2022/09/14 04:04:32;;;;;;;3.67;1.17;;;;;;;-142.37;100.00;59669.53;4954973;29;20160;-69
2022/09/14 04:06:57;;;;;;;2.72;1.10;;;;;;;-142.37;100.00;59669.53;4954830;29;20038;-70
2022/09/14 04:09:23;;;;;;;3.25;1.50;;;;;;;-142.37;100.00;59669.53;4954834;29;20112;-69
2022/09/14 04:11:49;;;;;;;1.98;1.38;;;;;;;-142.37;100.00;59669.53;4953869;29;20642;-67
2022/09/14 04:14:15;;;;;;;3.05;1.52;;;;;;;-142.37;100.00;59669.53;4937607;29;20035;-68
2022/09/14 04:16:42;;;;;;;4.22;2.17;;;;;;;-142.37;100.00;59669.53;4954595;29;20114;-68
2022/09/14 04:19:09;;;;;;;1.90;1.30;;;;;;;-142.37;100.00;59669.53;4954560;29;20035;-69
2022/09/14 04:21:35;;;;;;;4.00;1.65;;;;;;;-142.37;100.00;59669.53;4954488;29;20039;-69
2022/09/14 04:24:00;;;;;;;4.82;2.20;;;;;;;-142.37;100.00;59669.53;4954491;29;20118;-70
2022/09/14 04:26:28;;;;;;;2.25;2.05;;;;;;;-142.37;100.00;59669.53;4954612;29;20027;-70
2022/09/14 04:28:57;;;;;;;4.15;3.33;;;;;;;-142.37;100.00;59669.53;4954385;29;20035;-69
2022/09/14 04:31:24;;;;;;;4.60;2.08;;;;;;;-142.37;100.00;59669.53;4954332;29;20039;-68
2022/09/14 04:33:50;;;;;;;5.57;1.60;;;;;;;-142.37;100.00;59669.53;4954218;28;20055;-67
2022/09/14 04:36:21;;;;;;;4.80;1.67;;;;;;;-142.37;100.00;59669.53;4956260;28;20037;-67
2022/09/14 04:38:47;;;;;;;4.80;2.13;;;;;;;-142.37;100.00;59669.53;4974069;28;20062;-64
2022/09/14 04:41:15;;;;;;;6.75;2.10;;;;;;;-142.37;100.00;59669.53;4956173;28;20054;-65
2022/09/14 04:43:43;;;;;;;5.97;1.63;;;;;;;-142.37;100.00;59669.53;4956343;28;20444;-66
2022/09/14 04:46:13;;;;;;;4.45;2.10;;;;;;;-142.37;100.00;59669.53;4973419;28;20109;-66
2022/09/14 04:48:39;;;;;;;3.10;1.48;;;;;;;-142.37;100.00;59669.53;4973228;28;20059;-63
2022/09/14 04:51:07;;;;;;;2.95;1.50;;;;;;;-142.37;100.00;59669.53;4973490;28;20492;-65
2022/09/14 04:53:34;;;;;;;2.38;1.88;;;;;;;-142.37;100.00;59669.53;4973437;28;20121;-64
2022/09/14 04:56:06;;;;;;;3.65;1.63;;;;;;;-142.37;100.00;59669.53;4973579;28;20027;-64
2022/09/14 04:58:33;;;;;;;5.32;1.67;;;;;;;-142.37;100.00;59669.53;4955887;28;20126;-63
2022/09/14 05:01:03;;;;;;;4.28;2.72;;;;;;;-142.37;100.00;59669.53;4955240;28;20027;-65
2022/09/14 05:03:29;;;;;;;2.85;1.67;;;;;;;-142.37;100.00;59669.53;4972687;28;20034;-63
2022/09/14 05:05:59;;;;;;;5.75;1.50;;;;;;;-142.37;100.00;59669.53;4955785;28;20101;-62
2022/09/14 05:08:25;;;;;;;7.25;1.80;;;;;;;-142.37;100.00;59669.53;4972832;28;20035;-63
2022/09/14 05:10:54;;;;;;;5.40;2.20;;;;;;;-142.37;100.00;59669.53;4955792;28;20150;-63
2022/09/14 05:13:20;;;;;;;4.65;2.13;;;;;;;-142.37;100.00;59669.53;4972367;28;20038;-63
2022/09/14 05:15:46;;;;;;;4.18;2.00;;;;;;;-142.37;100.00;59669.53;4972900;28;20038;-63
2022/09/14 05:18:11;;;;;;;2.38;1.75;;;;;;;-142.37;100.00;59669.53;4973060;28;20043;-64
2022/09/14 05:20:37;;;;;;;6.75;1.88;;;;;;;-142.37;100.00;59669.53;4955179;28;20092;-62
2022/09/14 05:23:03;;;;;;;4.60;1.90;;;;;;;-142.37;100.00;59669.53;4955056;28;20404;-63
2022/09/14 05:25:28;;;;;;;2.90;1.67;;;;;;;-142.37;100.00;59669.53;4972555;28;20034;-64
2022/09/14 05:27:54;;;;;;;4.72;2.28;;;;;;;-142.37;100.00;59669.53;4955080;28;20121;-63
2022/09/14 05:30:19;;;;;;;6.10;2.10;;;;;;;-142.37;100.00;59669.53;4955149;28;20031;-62
2022/09/14 05:32:45;;;;;;;2.28;1.30;;;;;;;-142.37;100.00;59669.53;4954457;28;20055;-62
2022/09/14 05:35:11;;;;;;;3.90;1.65;;;;;;;-142.37;100.00;59669.53;4954727;28;20059;-63
2022/09/14 05:37:37;;;;;;;3.63;2.17;;;;;;;-142.37;100.00;59669.53;4972356;28;20129;-64
2022/09/14 05:40:04;;;;;;;4.28;1.52;;;;;;;-142.37;100.00;59669.53;4954823;28;20484;-64
2022/09/14 05:42:31;;;;;;;3.00;1.65;;;;;;;-142.37;100.00;59669.53;4972256;28;20057;-63
2022/09/14 05:44:57;;;;;;;2.97;1.85;;;;;;;-142.37;100.00;59669.53;4954156;28;20117;-65
2022/09/14 05:47:23;;;;;;;1.65;1.30;;;;;;;-142.37;100.00;59669.53;4954619;28;20027;-60
2022/09/14 05:49:48;;;;;;;5.28;1.80;;;;;;;-142.37;100.00;59669.53;4954425;28;20069;-64
2022/09/14 05:52:14;;;;;;;4.68;2.05;;;;;;;-142.37;100.00;59669.53;4971754;28;20391;-63
2022/09/14 05:54:40;;;;;;;4.13;2.00;;;;;;;-142.37;100.00;59669.53;4954476;28;20057;-65
2022/09/14 05:57:05;;;;;;;4.65;1.77;;;;;;;-142.37;100.00;59669.53;4971034;28;20392;-66
2022/09/14 05:59:31;;;;;;;3.63;1.95;;;;;;;-142.37;100.00;59669.53;4953878;28;20030;-66
2022/09/14 06:01:57;;;;;;;4.10;1.80;;;;;;;-142.37;100.00;59669.53;4972057;28;20038;-64
2022/09/14 06:04:24;;;;;;;4.43;2.10;;;;;;;-142.37;100.00;59669.53;4972333;28;20118;-64
2022/09/14 06:06:49;;;;;;;4.47;1.80;;;;;;;-142.37;100.00;59669.53;4954125;28;20472;-66
2022/09/14 06:09:15;;;;;;;2.30;1.63;;;;;;;-142.37;100.00;59669.53;4953674;28;20070;-66
2022/09/14 06:11:41;;;;;;;2.80;1.38;;;;;;;-142.37;100.00;59669.53;4971577;28;20072;-69
2022/09/14 06:14:07;;;;;;;3.30;1.40;;;;;;;-142.37;100.00;59669.53;4971043;28;20067;-69
2022/09/14 06:16:34;;;;;;;3.15;1.60;;;;;;;-142.37;100.00;59669.53;4957389;28;20176;-68
2022/09/14 06:18:59;;;;;;;2.03;1.20;;;;;;;-142.37;100.00;59669.53;4975368;28;20027;-68
2022/09/14 06:21:31;;;;;;;3.13;1.80;;;;;;;-142.37;100.00;59669.53;4956976;28;20092;-67
2022/09/14 06:23:57;;;;;;;12.35;2.25;;;;;;;-142.37;100.00;59669.53;4957691;28;20034;-70
2022/09/14 06:26:23;;;;;;;5.35;1.77;;;;;;;-142.37;100.00;59669.53;4957342;28;20027;-70
2022/09/14 06:28:49;;;;;;;1.85;1.00;;;;;;;-142.37;100.00;59669.53;4975057;28;20031;-69
2022/09/14 06:31:16;;;;;;;2.78;1.10;;;;;;;-142.37;100.00;59669.53;4957504;28;20038;-68
2022/09/14 06:33:46;;;;;;;2.90;1.00;;;;;;;-142.37;100.00;59669.53;4974887;28;20066;-70
2022/09/14 06:36:14;;;;;;;1.77;0.93;;;;;;;-142.37;100.00;59669.53;4974895;28;20031;-70
2022/09/14 06:38:41;;;;;;;1.92;1.50;;;;;;;-142.37;100.00;59669.53;4957715;28;20468;-70
2022/09/14 06:41:11;;;;;;;1.73;0.80;;;;;;;-142.37;100.00;59669.53;4974832;28;20162;-71
2022/09/14 06:43:39;;;;;;;3.20;1.20;;;;;;;-142.37;100.00;59669.53;4975148;28;20118;-70
2022/09/14 06:46:12;;;;;;;2.88;1.10;;;;;;;-142.37;100.00;59669.53;4975200;28;20412;-71
2022/09/14 06:48:41;;;;;;;1.88;0.80;;;;;;;-142.37;100.00;59669.53;4973894;28;20041;-71
2022/09/14 06:51:35;;;;;;;2.88;1.10;;;;;;;-142.37;100.00;59669.53;4974454;28;20038;-72
2022/09/14 06:54:02;;;;;;;1.02;0.52;;;;;;;-142.37;100.00;59669.53;4974436;28;20042;-71
2022/09/14 06:56:31;;;;;;;1.33;1.02;;;;;;;-142.37;100.00;59669.53;4974917;28;20419;-72
2022/09/14 06:58:57;;;;;;;1.73;1.20;;;;;;;-142.37;100.00;59669.53;4974672;28;20033;-78
2022/09/14 07:01:24;;;;;;;2.05;0.57;;;;;;;-142.37;100.00;59669.53;4956898;28;20031;-72
2022/09/14 07:03:52;;;;;;;2.38;0.70;;;;;;;-142.37;100.00;59669.53;4975224;28;20443;-71
2022/09/14 07:06:25;;;;;;;2.10;1.33;;;;;;;-142.37;100.00;59669.53;4974864;28;20026;-72
2022/09/14 07:08:52;;;;;;;5.40;0.80;;;;;;;-142.37;100.00;59669.53;4973120;28;20031;-71
2022/09/14 07:11:24;;;;;;;3.45;1.00;;;;;;;-142.37;100.00;59669.53;4956998;28;20035;-71
2022/09/14 07:13:53;;;;;;;2.20;0.60;;;;;;;-142.37;100.00;59669.53;4974539;28;20031;-72
2022/09/14 07:16:20;;;;;;;1.33;0.50;;;;;;;-142.37;100.00;59669.53;4956880;28;20169;-73
2022/09/14 07:18:46;;;;;;;0.85;0.52;;;;;;;-142.37;100.00;59669.53;4957540;28;20045;-72
2022/09/14 07:21:17;;;;;;;0.50;0.50;;;;;;;-142.37;100.00;59669.53;4974395;28;20034;-72
2022/09/14 07:23:44;;;;;;;1.20;0.50;;;;;;;-142.37;100.00;59669.53;4974403;28;20118;-72
2022/09/14 07:26:13;;;;;;;3.72;1.00;;;;;;;-142.37;100.00;59669.53;4973807;28;20039;-72
2022/09/14 07:28:40;;;;;;;1.83;0.60;;;;;;;-142.37;100.00;59669.53;4973575;28;20044;-73
2022/09/14 07:31:15;;;;;;;2.33;0.90;;;;;;;-142.37;100.00;59669.53;4974171;28;20038;-73
2022/09/14 07:33:40;;;;;;;1.13;0.60;;;;;;;-142.37;100.00;59669.53;4956738;28;20130;-72
2022/09/14 07:36:09;;;;;;;1.90;0.70;;;;;;;-142.37;100.00;59669.53;4974274;28;20109;-74
2022/09/14 07:38:34;;;;;;;0.52;0.50;;;;;;;-142.37;100.00;59669.53;4974294;28;20136;-73
2022/09/14 07:41:01;;;;;;;2.40;0.88;;;;;;;-142.37;100.00;59669.53;4974223;28;20522;-73
2022/09/14 07:43:28;;;;;;;0.88;0.60;;;;;;;-142.37;100.00;59669.53;4956590;28;20034;-73
2022/09/14 07:45:53;;;;;;;3.30;0.88;;;;;;;-142.37;100.00;59669.53;4956907;28;20086;-73
2022/09/14 07:48:19;;;;;;;1.60;0.40;;;;;;;-142.37;100.00;59669.53;4974580;28;20038;-72
2022/09/14 07:50:45;;;;;;;3.20;0.65;;;;;;;-142.37;100.00;59669.53;4973933;28;20031;-71
2022/09/14 07:53:12;;;;;;;7.85;5.13;;;;;;;-142.37;100.00;59669.53;4973435;28;20134;-73
2022/09/14 07:55:39;;;;;;;3.10;1.50;;;;;;;-142.37;100.00;59669.53;4956402;28;20073;-76
2022/09/14 07:58:05;;;;;;;1.95;0.40;;;;;;;-142.37;100.00;59669.53;4974179;28;20034;-72
2022/09/14 08:00:31;;;;;;;3.22;0.50;;;;;;;-142.37;100.00;59669.53;4956680;28;20035;-74
2022/09/14 08:02:57;;;;;;;0.50;0.38;;;;;;;-142.37;100.00;59669.53;4956395;28;20031;-77
2022/09/14 08:05:24;;;;;;;1.02;0.40;;;;;;;-142.37;100.00;59669.53;4974029;28;20031;-73
2022/09/14 08:07:54;;;;;;;0.55;0.35;;;;;;;-142.37;100.00;59669.53;4973641;28;20023;-72
2022/09/14 08:10:20;;;;;;;2.13;0.60;;;;;;;-142.37;100.00;59669.53;4974035;28;20041;-74
2022/09/14 08:12:54;;;;;;;1.55;0.50;;;;;;;-142.37;100.00;59669.53;4956294;28;20118;-74
2022/09/14 08:15:21;;;;;;;1.63;0.50;;;;;;;-142.37;100.00;59669.53;4956784;28;20388;-73
2022/09/14 08:17:47;;;;;;;0.40;0.35;;;;;;;-142.37;100.00;59669.53;4956295;28;20027;-74
2022/09/14 08:20:15;;;;;;;0.88;0.68;;;;;;;-142.37;100.00;59669.53;4973591;28;20041;-74
2022/09/14 08:22:44;;;;;;;1.88;0.40;;;;;;;-142.37;100.00;59669.53;4973326;28;20022;-73
2022/09/14 08:25:11;;;;;;;1.25;0.40;;;;;;;-142.37;100.00;59669.53;4973251;28;20023;-72
2022/09/14 08:27:38;;;;;;;3.47;0.65;;;;;;;-142.37;100.00;59669.53;4973813;28;20035;-67
2022/09/14 08:30:05;;;;;;;4.00;0.47;;;;;;;-142.37;100.00;59669.53;4973453;28;20035;-70
2022/09/14 08:32:30;;;;;;;3.63;0.57;;;;;;;-142.37;100.00;59669.53;4955311;28;20081;-70
2022/09/14 08:34:57;;;;;;;1.48;0.43;;;;;;;-142.37;100.00;59669.53;4972089;28;20078;-70
2022/09/14 08:37:22;;;;;;;1.23;0.40;;;;;;;-142.37;100.00;59669.53;4973083;28;20122;-71
2022/09/14 08:39:48;;;;;;;2.78;0.50;;;;;;;-142.37;100.00;59669.53;4955852;28;20134;-71
2022/09/14 08:42:18;;;;;;;0.88;0.55;;;;;;;-142.37;100.00;59669.53;4955628;28;20031;-73
2022/09/14 08:44:57;;;;;;;0.73;0.40;;;;;;;-142.37;100.00;59669.53;4973074;28;20115;-72
2022/09/14 08:47:38;;;;;;;1.17;0.60;;;;;;;-142.37;100.00;59669.53;4955456;28;20129;-73
2022/09/14 08:50:17;;;;;;;3.03;0.93;;;;;;;-142.37;100.00;59669.53;4955326;28;20034;-72
2022/09/14 08:52:51;;;;;;;0.88;0.63;;;;;;;-142.37;100.00;59669.53;4955789;28;20063;-69
2022/09/14 08:55:20;;;;;;;2.53;0.43;;;;;;;-142.37;100.00;59669.53;4955398;28;20033;-72
2022/09/14 08:57:56;;;;;;;1.13;0.43;;;;;;;-142.37;100.00;59669.53;4973301;28;20034;-70
2022/09/14 09:00:27;;;;;;;2.83;0.73;;;;;;;-142.37;100.00;59669.53;4954880;28;20169;-68
2022/09/14 09:02:59;;;;;;;1.02;0.30;;;;;;;-142.37;100.00;59669.53;4971134;28;20031;-67
2022/09/14 09:05:43;;;;;;;1.52;0.43;;;;;;;-142.37;100.00;59669.53;4971493;28;20078;-66
2022/09/14 09:08:17;;;;;;;2.15;1.55;;;;;;;-142.37;100.00;59669.53;4955230;28;20046;-66
2022/09/14 09:10:43;;;;;;;2.17;0.80;;;;;;;-142.37;100.00;59669.53;4955214;28;20034;-66
2022/09/14 09:13:14;;;;;;;4.93;1.80;;;;;;;-142.37;100.00;59669.53;4972217;28;20035;-63
2022/09/14 09:15:47;;;;;;;2.30;0.90;;;;;;;-142.37;100.00;59669.53;4972193;28;20039;-65
2022/09/14 09:18:16;;;;;;;1.25;0.45;;;;;;;-142.37;100.00;59669.53;4973100;28;20035;-65
2022/09/14 09:20:49;;;;;;;1.02;0.60;;;;;;;-142.37;100.00;59669.53;4971340;28;20074;-68
2022/09/14 09:23:24;;;;;;;1.55;0.65;;;;;;;-142.37;100.00;59669.53;4954262;28;20027;-67
2022/09/14 09:26:21;;;;;;;3.70;0.50;;;;;;;-142.37;100.00;59669.53;4972816;28;20061;-67
2022/09/14 09:28:51;;;;;;;1.45;0.90;;;;;;;-142.37;100.00;59669.53;4969868;28;20082;-67
2022/09/14 09:31:20;;;;;;;4.47;0.70;;;;;;;-142.37;100.00;59669.53;4971923;28;20536;-64
2022/09/14 09:33:49;;;;;;;1.58;1.08;;;;;;;-142.37;100.00;59669.53;4972112;28;20047;-65
2022/09/14 09:36:16;;;;;;;3.25;0.57;;;;;;;-142.37;100.00;59669.53;4972184;28;20611;-65
2022/09/14 09:38:41;;;;;;;6.25;0.70;;;;;;;-142.37;100.00;59669.53;4954569;28;20117;-66
2022/09/14 09:41:14;;;;;;;1.52;0.55;;;;;;;-142.37;100.00;59669.53;4972287;28;20138;-69
2022/09/14 09:44:08;;;;;;;0.70;0.70;;;;;;;-142.37;100.00;59669.53;4954656;28;20042;-67
2022/09/14 09:46:38;;;;;;;0.57;0.50;;;;;;;-142.37;100.00;59669.53;4965925;28;20050;-66
2022/09/14 09:49:20;;;;;;;2.65;1.02;;;;;;;-142.37;100.00;59669.53;4954570;28;20029;-65
2022/09/14 09:51:47;;;;;;;3.78;2.22;;;;;;;-142.37;100.00;59669.53;4957551;28;20491;-66
2022/09/14 09:54:13;;;;;;;3.08;0.50;;;;;;;-142.37;100.00;59669.53;4957675;28;20043;-64
2022/09/14 09:57:04;;;;;;;2.70;0.70;;;;;;;-142.37;100.00;59669.53;4975579;28;20035;-65
2022/09/14 09:59:48;;;;;;;3.53;1.20;;;;;;;-142.37;100.00;59669.53;4958091;28;20114;-63
2022/09/14 10:02:20;;;;;;;3.05;0.80;;;;;;;-142.37;100.00;59669.53;4976026;28;20074;-64
2022/09/14 10:05:01;;;;;;;4.80;0.70;;;;;;;-142.37;100.00;59669.53;4976039;28;20041;-63
2022/09/14 10:07:30;;;;;;;2.50;1.00;;;;;;;-142.37;100.00;59669.53;4975510;28;20027;-64
2022/09/14 10:10:09;;;;;;;1.20;0.75;;;;;;;-142.37;100.00;59669.53;4958153;28;20053;-64
2022/09/14 10:12:46;;;;;;;4.80;0.77;;;;;;;-142.37;100.00;59669.53;4975604;28;20035;-66
2022/09/14 10:15:27;;;;;;;2.40;0.60;;;;;;;-142.37;100.00;59669.53;4974792;28;20031;-63
2022/09/14 10:18:07;;;;;;;2.80;0.57;;;;;;;-142.37;100.00;59669.53;4973270;28;20079;-64
2022/09/14 10:20:34;;;;;;;2.63;0.75;;;;;;;-142.37;100.00;59669.53;4974222;28;20035;-64
2022/09/14 10:23:18;;;;;;;2.20;0.75;;;;;;;-142.37;100.00;59669.53;4957249;28;20476;-64
2022/09/14 10:25:52;;;;;;;6.10;2.17;;;;;;;-142.37;100.00;59669.53;4973663;28;20129;-64
2022/09/14 10:28:26;;;;;;;1.17;0.70;;;;;;;-142.37;100.00;59669.53;4958161;28;20498;-64
2022/09/14 10:31:00;;;;;;;4.15;2.33;;;;;;;-142.37;100.00;59669.53;4958257;28;20121;-64
2022/09/14 10:33:25;;;;;;;1.85;0.52;;;;;;;-142.37;100.00;59669.53;4974645;28;20194;-63
2022/09/14 10:36:20;;;;;;;2.25;0.90;;;;;;;-142.37;100.00;59669.53;4973518;28;20116;-63
2022/09/14 10:38:52;;;;;;;2.60;0.60;;;;;;;-142.37;100.00;59669.53;4975294;28;20035;-64
2022/09/14 10:41:40;;;;;;;3.13;0.60;;;;;;;-142.37;100.00;59669.53;4957467;28;20552;-64
2022/09/14 10:44:33;;;;;;;3.05;0.93;;;;;;;-142.37;100.00;59669.53;4957627;28;20101;-64
2022/09/14 10:47:17;;;;;;;3.70;0.70;;;;;;;-142.37;100.00;59669.53;4956973;28;20041;-62
2022/09/14 10:50:04;;;;;;;1.85;0.65;;;;;;;-142.37;100.00;59669.53;4957293;28;20093;-63
2022/09/14 10:52:55;;;;;;;3.03;1.58;;;;;;;-142.37;100.00;59669.53;4973237;28;20061;-64
2022/09/14 10:55:43;;;;;;;10.55;1.92;;;;;;;-142.37;100.00;59669.53;4957382;28;20747;-64
2022/09/14 10:58:11;;;;;;;3.58;1.10;;;;;;;-142.37;100.00;59669.53;4974666;28;20182;-64
2022/09/14 11:00:59;;;;;;;2.20;0.55;;;;;;;-142.37;100.00;59669.53;4972834;28;20506;-63
2022/09/14 11:03:31;;;;;;;2.45;0.93;;;;;;;-142.37;100.00;59669.53;4956541;28;20373;-63
2022/09/14 11:06:06;;;;;;;5.30;0.93;;;;;;;-142.37;100.00;59669.53;4973392;28;20038;-64
2022/09/14 11:08:44;;;;;;;5.07;0.63;;;;;;;-142.37;100.00;59669.53;4957332;28;20395;-63
2022/09/14 11:11:54;;;;;;;2.75;0.75;;;;;;;-142.37;100.00;59669.53;4974505;28;20113;-63
2022/09/14 11:14:59;;;;;;;1.88;0.65;;;;;;;-142.37;100.00;59669.53;4953822;28;20046;-64
2022/09/14 11:17:39;;;;;;;7.32;5.85;;;;;;;-142.37;100.00;59669.53;4944325;28;20142;-65
2022/09/14 11:20:25;;;;;;;3.30;0.80;;;;;;;-142.37;100.00;59669.53;4972803;28;20035;-64
2022/09/14 11:23:39;;;;;;;2.33;0.52;;;;;;;-142.37;100.00;59669.53;4973208;28;20038;-65
2022/09/14 11:26:30;;;;;;;3.72;1.00;;;;;;;-142.37;100.00;59669.53;4944310;28;20090;-63
2022/09/14 11:29:25;;;;;;;1.63;0.70;;;;;;;-142.37;100.00;59669.53;4974425;28;20031;-68